sensor_id;sensor_type;location;lat;lon;timestamp;P1;durP1;ratioP1;P2;durP2;ratioP2
1545;SDS011;766;51.502;9.752;2023-03-01T00:01:48;10.87;;;6.67;;
1545;SDS011;766;51.502;9.752;2023-03-01T00:04:16;12.77;;;6.60;;
1545;SDS011;766;51.502;9.752;2023-03-01T00:06:44;9.67;;;6.70;;
1545;SDS011;766;51.502;9.752;2023-03-01T00:09:14;11.80;;;5.67;;
1545;SDS011;766;51.502;9.752;2023-03-01T00:11:44;9.70;;;6.03;;
1545;SDS011;766;51.502;9.752;2023-03-01T00:14:13;8.10;;;5.30;;
1545;SDS011;766;51.502;9.752;2023-03-01T00:16:44;9.03;;;5.87;;
1545;SDS011;766;51.502;9.752;2023-03-01T00:19:15;10.07;;;6.03;;
1545;SDS011;766;51.502;9.752;2023-03-01T00:21:45;12.33;;;5.97;;
1545;SDS011;766;51.502;9.752;2023-03-01T00:24:14;10.93;;;5.87;;
1545;SDS011;766;51.502;9.752;2023-03-01T00:26:43;9.27;;;5.77;;
1545;SDS011;766;51.502;9.752;2023-03-01T00:29:11;10.07;;;5.43;;
1545;SDS011;766;51.502;9.752;2023-03-01T00:31:40;8.67;;;5.17;;
1545;SDS011;766;51.502;9.752;2023-03-01T00:34:10;10.90;;;5.73;;
1545;SDS011;766;51.502;9.752;2023-03-01T00:36:39;15.47;;;5.63;;
1545;SDS011;766;51.502;9.752;2023-03-01T00:39:09;8.07;;;4.77;;
1545;SDS011;766;51.502;9.752;2023-03-01T00:41:39;8.67;;;5.53;;
1545;SDS011;766;51.502;9.752;2023-03-01T00:44:08;7.30;;;4.93;;
1545;SDS011;766;51.502;9.752;2023-03-01T00:46:37;10.23;;;5.50;;
1545;SDS011;766;51.502;9.752;2023-03-01T00:49:08;7.77;;;4.93;;
1545;SDS011;766;51.502;9.752;2023-03-01T00:51:40;8.77;;;4.90;;
1545;SDS011;766;51.502;9.752;2023-03-01T00:54:08;10.23;;;5.17;;
1545;SDS011;766;51.502;9.752;2023-03-01T00:56:37;8.17;;;4.90;;
1545;SDS011;766;51.502;9.752;2023-03-01T00:59:08;8.13;;;4.50;;
1545;SDS011;766;51.502;9.752;2023-03-01T01:01:36;9.27;;;5.00;;
1545;SDS011;766;51.502;9.752;2023-03-01T01:04:06;8.83;;;4.97;;
1545;SDS011;766;51.502;9.752;2023-03-01T01:06:38;10.47;;;5.60;;
1545;SDS011;766;51.502;9.752;2023-03-01T01:09:10;9.10;;;4.93;;
1545;SDS011;766;51.502;9.752;2023-03-01T01:11:46;8.47;;;5.40;;
1545;SDS011;766;51.502;9.752;2023-03-01T01:14:17;8.93;;;5.37;;
1545;SDS011;766;51.502;9.752;2023-03-01T01:16:46;10.27;;;5.80;;
1545;SDS011;766;51.502;9.752;2023-03-01T01:19:15;8.50;;;4.77;;
1545;SDS011;766;51.502;9.752;2023-03-01T01:21:45;10.43;;;5.33;;
1545;SDS011;766;51.502;9.752;2023-03-01T01:24:18;8.67;;;4.80;;
1545;SDS011;766;51.502;9.752;2023-03-01T01:26:47;9.00;;;4.77;;
1545;SDS011;766;51.502;9.752;2023-03-01T01:29:15;8.07;;;5.20;;
1545;SDS011;766;51.502;9.752;2023-03-01T01:31:47;8.40;;;5.30;;
1545;SDS011;766;51.502;9.752;2023-03-01T01:34:17;8.53;;;4.73;;
1545;SDS011;766;51.502;9.752;2023-03-01T01:36:49;8.93;;;5.30;;
1545;SDS011;766;51.502;9.752;2023-03-01T01:39:19;13.60;;;5.23;;
1545;SDS011;766;51.502;9.752;2023-03-01T01:41:48;9.47;;;5.37;;
1545;SDS011;766;51.502;9.752;2023-03-01T01:44:19;9.40;;;4.70;;
1545;SDS011;766;51.502;9.752;2023-03-01T01:46:50;10.37;;;5.87;;
1545;SDS011;766;51.502;9.752;2023-03-01T01:49:23;7.90;;;4.90;;
1545;SDS011;766;51.502;9.752;2023-03-01T01:51:59;8.80;;;4.80;;
1545;SDS011;766;51.502;9.752;2023-03-01T01:54:36;8.40;;;4.77;;
1545;SDS011;766;51.502;9.752;2023-03-01T01:57:09;8.07;;;5.10;;
1545;SDS011;766;51.502;9.752;2023-03-01T01:59:41;9.20;;;4.70;;
1545;SDS011;766;51.502;9.752;2023-03-01T02:02:13;8.57;;;4.90;;
1545;SDS011;766;51.502;9.752;2023-03-01T02:04:42;7.17;;;4.43;;
1545;SDS011;766;51.502;9.752;2023-03-01T02:07:15;9.17;;;5.40;;
1545;SDS011;766;51.502;9.752;2023-03-01T02:09:49;8.33;;;4.57;;
1545;SDS011;766;51.502;9.752;2023-03-01T02:12:20;9.83;;;4.87;;
1545;SDS011;766;51.502;9.752;2023-03-01T02:14:51;10.83;;;5.53;;
1545;SDS011;766;51.502;9.752;2023-03-01T02:17:20;7.23;;;4.73;;
1545;SDS011;766;51.502;9.752;2023-03-01T02:19:52;9.63;;;5.57;;
1545;SDS011;766;51.502;9.752;2023-03-01T02:22:35;8.30;;;5.47;;
1545;SDS011;766;51.502;9.752;2023-03-01T02:25:12;14.37;;;5.20;;
1545;SDS011;766;51.502;9.752;2023-03-01T02:27:54;13.00;;;5.67;;
1545;SDS011;766;51.502;9.752;2023-03-01T02:30:29;9.13;;;4.93;;
1545;SDS011;766;51.502;9.752;2023-03-01T02:33:00;10.03;;;5.20;;
1545;SDS011;766;51.502;9.752;2023-03-01T02:35:31;11.83;;;5.53;;
1545;SDS011;766;51.502;9.752;2023-03-01T02:38:03;12.57;;;6.10;;
1545;SDS011;766;51.502;9.752;2023-03-01T02:40:37;12.60;;;5.40;;
1545;SDS011;766;51.502;9.752;2023-03-01T02:43:11;9.33;;;5.43;;
1545;SDS011;766;51.502;9.752;2023-03-01T02:45:47;11.80;;;5.77;;
1545;SDS011;766;51.502;9.752;2023-03-01T02:48:16;9.53;;;5.00;;
1545;SDS011;766;51.502;9.752;2023-03-01T02:50:47;9.13;;;5.30;;
1545;SDS011;766;51.502;9.752;2023-03-01T02:53:28;7.63;;;4.90;;
1545;SDS011;766;51.502;9.752;2023-03-01T02:56:03;7.33;;;4.73;;
1545;SDS011;766;51.502;9.752;2023-03-01T02:58:32;10.07;;;5.63;;
1545;SDS011;766;51.502;9.752;2023-03-01T03:01:09;9.87;;;5.27;;
1545;SDS011;766;51.502;9.752;2023-03-01T03:03:37;9.87;;;5.53;;
1545;SDS011;766;51.502;9.752;2023-03-01T03:06:06;10.47;;;5.20;;
1545;SDS011;766;51.502;9.752;2023-03-01T03:08:34;9.33;;;5.50;;
1545;SDS011;766;51.502;9.752;2023-03-01T03:11:03;9.20;;;5.57;;
1545;SDS011;766;51.502;9.752;2023-03-01T03:13:33;9.30;;;4.83;;
1545;SDS011;766;51.502;9.752;2023-03-01T03:16:04;9.73;;;5.77;;
1545;SDS011;766;51.502;9.752;2023-03-01T03:18:40;9.37;;;5.30;;
1545;SDS011;766;51.502;9.752;2023-03-01T03:21:09;9.43;;;5.37;;
1545;SDS011;766;51.502;9.752;2023-03-01T03:23:39;8.07;;;5.27;;
1545;SDS011;766;51.502;9.752;2023-03-01T03:26:07;7.80;;;4.93;;
1545;SDS011;766;51.502;9.752;2023-03-01T03:28:39;9.07;;;5.57;;
1545;SDS011;766;51.502;9.752;2023-03-01T03:31:08;8.40;;;4.90;;
1545;SDS011;766;51.502;9.752;2023-03-01T03:33:37;9.60;;;5.70;;
1545;SDS011;766;51.502;9.752;2023-03-01T03:36:07;10.67;;;5.40;;
1545;SDS011;766;51.502;9.752;2023-03-01T03:38:39;8.23;;;4.67;;
1545;SDS011;766;51.502;9.752;2023-03-01T03:41:07;10.43;;;5.57;;
1545;SDS011;766;51.502;9.752;2023-03-01T03:43:37;9.73;;;4.80;;
1545;SDS011;766;51.502;9.752;2023-03-01T03:46:10;9.70;;;5.33;;
1545;SDS011;766;51.502;9.752;2023-03-01T03:48:40;12.83;;;4.77;;
1545;SDS011;766;51.502;9.752;2023-03-01T03:51:12;9.20;;;4.70;;
1545;SDS011;766;51.502;9.752;2023-03-01T03:53:41;10.37;;;5.57;;
1545;SDS011;766;51.502;9.752;2023-03-01T03:56:10;8.60;;;5.17;;
1545;SDS011;766;51.502;9.752;2023-03-01T03:58:39;9.07;;;5.60;;
1545;SDS011;766;51.502;9.752;2023-03-01T04:01:08;10.13;;;5.40;;
1545;SDS011;766;51.502;9.752;2023-03-01T04:03:37;8.97;;;4.90;;
1545;SDS011;766;51.502;9.752;2023-03-01T04:06:06;8.93;;;4.97;;
1545;SDS011;766;51.502;9.752;2023-03-01T04:08:35;7.63;;;4.70;;
1545;SDS011;766;51.502;9.752;2023-03-01T04:11:04;7.83;;;4.80;;
1545;SDS011;766;51.502;9.752;2023-03-01T04:13:47;9.27;;;4.60;;
1545;SDS011;766;51.502;9.752;2023-03-01T04:16:19;8.17;;;5.13;;
1545;SDS011;766;51.502;9.752;2023-03-01T04:18:49;8.87;;;4.67;;
1545;SDS011;766;51.502;9.752;2023-03-01T04:21:19;9.40;;;4.50;;
1545;SDS011;766;51.502;9.752;2023-03-01T04:23:49;9.60;;;4.80;;
1545;SDS011;766;51.502;9.752;2023-03-01T04:26:19;9.97;;;5.37;;
1545;SDS011;766;51.502;9.752;2023-03-01T04:28:47;9.73;;;4.83;;
1545;SDS011;766;51.502;9.752;2023-03-01T04:31:18;9.53;;;4.53;;
1545;SDS011;766;51.502;9.752;2023-03-01T04:33:49;10.30;;;5.40;;
1545;SDS011;766;51.502;9.752;2023-03-01T04:36:19;11.23;;;5.30;;
1545;SDS011;766;51.502;9.752;2023-03-01T04:38:52;8.13;;;4.70;;
1545;SDS011;766;51.502;9.752;2023-03-01T04:41:22;8.27;;;5.10;;
1545;SDS011;766;51.502;9.752;2023-03-01T04:43:51;9.90;;;4.87;;
1545;SDS011;766;51.502;9.752;2023-03-01T04:46:21;9.37;;;5.97;;
1545;SDS011;766;51.502;9.752;2023-03-01T04:48:50;8.47;;;5.13;;
1545;SDS011;766;51.502;9.752;2023-03-01T04:51:18;10.10;;;5.57;;
1545;SDS011;766;51.502;9.752;2023-03-01T04:53:46;7.93;;;5.33;;
1545;SDS011;766;51.502;9.752;2023-03-01T04:56:16;10.83;;;5.10;;
1545;SDS011;766;51.502;9.752;2023-03-01T04:58:45;8.47;;;5.07;;
1545;SDS011;766;51.502;9.752;2023-03-01T05:01:15;16.63;;;5.80;;
1545;SDS011;766;51.502;9.752;2023-03-01T05:03:46;8.67;;;5.20;;
1545;SDS011;766;51.502;9.752;2023-03-01T05:06:17;10.73;;;5.90;;
1545;SDS011;766;51.502;9.752;2023-03-01T05:08:46;10.07;;;5.37;;
1545;SDS011;766;51.502;9.752;2023-03-01T05:11:15;10.63;;;5.50;;
1545;SDS011;766;51.502;9.752;2023-03-01T05:13:47;10.93;;;5.67;;
1545;SDS011;766;51.502;9.752;2023-03-01T05:16:21;10.47;;;5.50;;
1545;SDS011;766;51.502;9.752;2023-03-01T05:18:49;13.83;;;5.63;;
1545;SDS011;766;51.502;9.752;2023-03-01T05:21:18;14.57;;;6.60;;
1545;SDS011;766;51.502;9.752;2023-03-01T05:23:46;12.47;;;6.60;;
1545;SDS011;766;51.502;9.752;2023-03-01T05:26:17;11.80;;;5.73;;
1545;SDS011;766;51.502;9.752;2023-03-01T05:28:54;11.40;;;5.80;;
1545;SDS011;766;51.502;9.752;2023-03-01T05:31:26;11.17;;;5.97;;
1545;SDS011;766;51.502;9.752;2023-03-01T05:34:15;13.33;;;7.07;;
1545;SDS011;766;51.502;9.752;2023-03-01T05:36:45;14.80;;;6.60;;
1545;SDS011;766;51.502;9.752;2023-03-01T05:39:13;16.97;;;7.57;;
1545;SDS011;766;51.502;9.752;2023-03-01T05:41:45;14.17;;;7.40;;
1545;SDS011;766;51.502;9.752;2023-03-01T05:44:13;17.07;;;6.53;;
1545;SDS011;766;51.502;9.752;2023-03-01T05:46:42;16.10;;;7.17;;
1545;SDS011;766;51.502;9.752;2023-03-01T05:49:11;12.20;;;6.70;;
1545;SDS011;766;51.502;9.752;2023-03-01T05:51:41;11.10;;;6.60;;
1545;SDS011;766;51.502;9.752;2023-03-01T05:54:10;13.87;;;7.37;;
1545;SDS011;766;51.502;9.752;2023-03-01T05:56:39;14.13;;;7.00;;
1545;SDS011;766;51.502;9.752;2023-03-01T05:59:08;12.60;;;7.00;;
1545;SDS011;766;51.502;9.752;2023-03-01T06:01:37;10.70;;;6.87;;
1545;SDS011;766;51.502;9.752;2023-03-01T06:04:08;13.53;;;7.07;;
1545;SDS011;766;51.502;9.752;2023-03-01T06:06:37;10.30;;;6.13;;
1545;SDS011;766;51.502;9.752;2023-03-01T06:09:07;13.30;;;6.23;;
1545;SDS011;766;51.502;9.752;2023-03-01T06:11:36;13.00;;;6.77;;
1545;SDS011;766;51.502;9.752;2023-03-01T06:14:05;14.37;;;6.20;;
1545;SDS011;766;51.502;9.752;2023-03-01T06:16:38;13.87;;;7.23;;
1545;SDS011;766;51.502;9.752;2023-03-01T06:19:11;11.77;;;6.10;;
1545;SDS011;766;51.502;9.752;2023-03-01T06:21:42;11.90;;;6.57;;
1545;SDS011;766;51.502;9.752;2023-03-01T06:24:10;16.50;;;7.93;;
1545;SDS011;766;51.502;9.752;2023-03-01T06:26:39;13.10;;;6.77;;
1545;SDS011;766;51.502;9.752;2023-03-01T06:29:07;12.10;;;7.20;;
1545;SDS011;766;51.502;9.752;2023-03-01T06:31:35;12.70;;;6.53;;
1545;SDS011;766;51.502;9.752;2023-03-01T06:34:05;16.50;;;7.37;;
1545;SDS011;766;51.502;9.752;2023-03-01T06:36:33;16.20;;;7.87;;
1545;SDS011;766;51.502;9.752;2023-03-01T06:39:01;17.03;;;8.30;;
1545;SDS011;766;51.502;9.752;2023-03-01T06:41:32;21.13;;;9.97;;
1545;SDS011;766;51.502;9.752;2023-03-01T06:44:01;25.27;;;11.73;;
1545;SDS011;766;51.502;9.752;2023-03-01T06:46:29;28.97;;;11.80;;
1545;SDS011;766;51.502;9.752;2023-03-01T06:48:59;26.23;;;12.07;;
1545;SDS011;766;51.502;9.752;2023-03-01T06:51:36;22.10;;;10.00;;
1545;SDS011;766;51.502;9.752;2023-03-01T06:54:07;19.03;;;9.20;;
1545;SDS011;766;51.502;9.752;2023-03-01T06:56:36;20.50;;;9.07;;
1545;SDS011;766;51.502;9.752;2023-03-01T06:59:04;16.87;;;8.53;;
1545;SDS011;766;51.502;9.752;2023-03-01T07:01:33;18.63;;;9.33;;
1545;SDS011;766;51.502;9.752;2023-03-01T07:04:03;17.77;;;9.60;;
1545;SDS011;766;51.502;9.752;2023-03-01T07:06:32;24.57;;;12.30;;
1545;SDS011;766;51.502;9.752;2023-03-01T07:09:00;34.77;;;15.63;;
1545;SDS011;766;51.502;9.752;2023-03-01T07:11:30;30.27;;;12.27;;
1545;SDS011;766;51.502;9.752;2023-03-01T07:14:02;25.67;;;13.33;;
1545;SDS011;766;51.502;9.752;2023-03-01T07:16:30;37.50;;;16.67;;
1545;SDS011;766;51.502;9.752;2023-03-01T07:19:00;52.73;;;23.90;;
1545;SDS011;766;51.502;9.752;2023-03-01T07:21:29;23.60;;;10.03;;
1545;SDS011;766;51.502;9.752;2023-03-01T07:23:58;30.73;;;11.90;;
1545;SDS011;766;51.502;9.752;2023-03-01T07:26:27;22.80;;;11.00;;
1545;SDS011;766;51.502;9.752;2023-03-01T07:28:58;20.13;;;9.87;;
1545;SDS011;766;51.502;9.752;2023-03-01T07:31:27;17.27;;;9.10;;
1545;SDS011;766;51.502;9.752;2023-03-01T07:33:57;24.13;;;10.87;;
1545;SDS011;766;51.502;9.752;2023-03-01T07:36:25;24.53;;;11.07;;
1545;SDS011;766;51.502;9.752;2023-03-01T07:39:01;26.27;;;10.23;;
1545;SDS011;766;51.502;9.752;2023-03-01T07:41:30;17.30;;;8.47;;
1545;SDS011;766;51.502;9.752;2023-03-01T07:43:59;20.50;;;8.23;;
1545;SDS011;766;51.502;9.752;2023-03-01T07:46:28;13.20;;;7.87;;
1545;SDS011;766;51.502;9.752;2023-03-01T07:48:57;16.33;;;7.43;;
1545;SDS011;766;51.502;9.752;2023-03-01T07:51:25;14.57;;;7.43;;
1545;SDS011;766;51.502;9.752;2023-03-01T07:53:54;13.30;;;6.43;;
1545;SDS011;766;51.502;9.752;2023-03-01T07:56:24;10.63;;;5.80;;
1545;SDS011;766;51.502;9.752;2023-03-01T07:58:53;12.80;;;5.50;;
1545;SDS011;766;51.502;9.752;2023-03-01T08:01:23;14.10;;;6.57;;
1545;SDS011;766;51.502;9.752;2023-03-01T08:03:51;14.03;;;7.30;;
1545;SDS011;766;51.502;9.752;2023-03-01T08:06:20;10.67;;;5.90;;
1545;SDS011;766;51.502;9.752;2023-03-01T08:08:51;14.17;;;6.00;;
1545;SDS011;766;51.502;9.752;2023-03-01T08:11:22;13.70;;;6.90;;
1545;SDS011;766;51.502;9.752;2023-03-01T08:13:52;14.90;;;5.47;;
1545;SDS011;766;51.502;9.752;2023-03-01T08:16:21;23.13;;;8.97;;
1545;SDS011;766;51.502;9.752;2023-03-01T08:18:51;12.68;;;7.32;;
1545;SDS011;766;51.502;9.752;2023-03-01T08:21:22;16.03;;;8.03;;
1545;SDS011;766;51.502;9.752;2023-03-01T08:23:54;13.03;;;5.77;;
1545;SDS011;766;51.502;9.752;2023-03-01T08:26:22;10.30;;;6.40;;
1545;SDS011;766;51.502;9.752;2023-03-01T08:28:50;11.00;;;5.43;;
1545;SDS011;766;51.502;9.752;2023-03-01T08:31:23;10.83;;;4.93;;
1545;SDS011;766;51.502;9.752;2023-03-01T08:33:55;9.07;;;4.93;;
1545;SDS011;766;51.502;9.752;2023-03-01T08:36:26;9.53;;;4.93;;
1545;SDS011;766;51.502;9.752;2023-03-01T08:38:56;9.73;;;5.57;;
1545;SDS011;766;51.502;9.752;2023-03-01T08:41:25;10.17;;;5.53;;
1545;SDS011;766;51.502;9.752;2023-03-01T08:43:55;10.73;;;4.83;;
1545;SDS011;766;51.502;9.752;2023-03-01T08:46:29;11.27;;;5.50;;
1545;SDS011;766;51.502;9.752;2023-03-01T08:49:03;10.70;;;5.05;;
1545;SDS011;766;51.502;9.752;2023-03-01T08:51:33;9.43;;;4.88;;
1545;SDS011;766;51.502;9.752;2023-03-01T08:54:03;9.10;;;4.45;;
1545;SDS011;766;51.502;9.752;2023-03-01T08:56:38;10.85;;;5.18;;
1545;SDS011;766;51.502;9.752;2023-03-01T08:59:08;8.93;;;5.10;;
1545;SDS011;766;51.502;9.752;2023-03-01T09:01:38;13.63;;;5.32;;
1545;SDS011;766;51.502;9.752;2023-03-01T09:04:10;9.93;;;4.80;;
1545;SDS011;766;51.502;9.752;2023-03-01T09:06:39;8.43;;;5.18;;
1545;SDS011;766;51.502;9.752;2023-03-01T09:09:10;9.43;;;4.75;;
1545;SDS011;766;51.502;9.752;2023-03-01T09:11:42;9.18;;;4.85;;
1545;SDS011;766;51.502;9.752;2023-03-01T09:14:18;9.70;;;4.87;;
1545;SDS011;766;51.502;9.752;2023-03-01T09:16:48;9.48;;;5.55;;
1545;SDS011;766;51.502;9.752;2023-03-01T09:19:17;9.23;;;5.00;;
1545;SDS011;766;51.502;9.752;2023-03-01T09:21:46;10.87;;;5.23;;
1545;SDS011;766;51.502;9.752;2023-03-01T09:24:19;8.90;;;5.03;;
1545;SDS011;766;51.502;9.752;2023-03-01T09:26:52;12.73;;;5.30;;
1545;SDS011;766;51.502;9.752;2023-03-01T09:29:23;8.77;;;4.50;;
1545;SDS011;766;51.502;9.752;2023-03-01T09:31:52;8.18;;;4.90;;
1545;SDS011;766;51.502;9.752;2023-03-01T09:34:22;12.20;;;5.65;;
1545;SDS011;766;51.502;9.752;2023-03-01T09:36:51;9.90;;;5.13;;
1545;SDS011;766;51.502;9.752;2023-03-01T09:39:19;12.35;;;5.32;;
1545;SDS011;766;51.502;9.752;2023-03-01T09:41:49;9.68;;;5.18;;
1545;SDS011;766;51.502;9.752;2023-03-01T09:44:31;9.82;;;5.40;;
1545;SDS011;766;51.502;9.752;2023-03-01T09:47:05;11.10;;;5.05;;
1545;SDS011;766;51.502;9.752;2023-03-01T09:49:39;13.63;;;5.72;;
1545;SDS011;766;51.502;9.752;2023-03-01T09:52:19;9.40;;;5.25;;
1545;SDS011;766;51.502;9.752;2023-03-01T09:54:53;9.32;;;5.20;;
1545;SDS011;766;51.502;9.752;2023-03-01T09:57:28;13.77;;;5.65;;
1545;SDS011;766;51.502;9.752;2023-03-01T10:00:17;8.82;;;5.43;;
1545;SDS011;766;51.502;9.752;2023-03-01T10:02:57;10.77;;;5.50;;
1545;SDS011;766;51.502;9.752;2023-03-01T10:05:41;13.13;;;6.18;;
1545;SDS011;766;51.502;9.752;2023-03-01T10:08:28;10.63;;;5.72;;
1545;SDS011;766;51.502;9.752;2023-03-01T10:11:03;12.82;;;7.03;;
1545;SDS011;766;51.502;9.752;2023-03-01T10:13:55;11.13;;;5.78;;
1545;SDS011;766;51.502;9.752;2023-03-01T10:16:32;8.70;;;5.32;;
1545;SDS011;766;51.502;9.752;2023-03-01T10:19:08;9.27;;;6.07;;
1545;SDS011;766;51.502;9.752;2023-03-01T10:21:43;12.75;;;7.07;;
1545;SDS011;766;51.502;9.752;2023-03-01T10:24:14;15.45;;;6.68;;
1545;SDS011;766;51.502;9.752;2023-03-01T10:26:47;13.50;;;7.55;;
1545;SDS011;766;51.502;9.752;2023-03-01T10:29:26;12.15;;;6.57;;
1545;SDS011;766;51.502;9.752;2023-03-01T10:32:04;10.55;;;5.85;;
1545;SDS011;766;51.502;9.752;2023-03-01T10:34:34;12.52;;;6.80;;
1545;SDS011;766;51.502;9.752;2023-03-01T10:37:09;15.35;;;7.07;;
1545;SDS011;766;51.502;9.752;2023-03-01T10:39:54;12.43;;;6.68;;
1545;SDS011;766;51.502;9.752;2023-03-01T10:42:28;13.00;;;6.35;;
1545;SDS011;766;51.502;9.752;2023-03-01T10:45:14;11.75;;;6.32;;
1545;SDS011;766;51.502;9.752;2023-03-01T10:47:46;11.95;;;6.43;;
1545;SDS011;766;51.502;9.752;2023-03-01T10:50:30;13.82;;;6.70;;
1545;SDS011;766;51.502;9.752;2023-03-01T10:53:00;11.50;;;6.57;;
1545;SDS011;766;51.502;9.752;2023-03-01T10:55:30;16.83;;;6.90;;
1545;SDS011;766;51.502;9.752;2023-03-01T10:58:06;12.90;;;6.40;;
1545;SDS011;766;51.502;9.752;2023-03-01T11:00:45;12.30;;;5.80;;
1545;SDS011;766;51.502;9.752;2023-03-01T11:03:18;11.07;;;6.25;;
1545;SDS011;766;51.502;9.752;2023-03-01T11:05:50;12.45;;;6.35;;
1545;SDS011;766;51.502;9.752;2023-03-01T11:11:17;11.52;;;6.25;;
1545;SDS011;766;51.502;9.752;2023-03-01T11:13:53;10.32;;;5.70;;
1545;SDS011;766;51.502;9.752;2023-03-01T11:16:28;11.73;;;6.20;;
1545;SDS011;766;51.502;9.752;2023-03-01T11:19:04;12.95;;;6.30;;
1545;SDS011;766;51.502;9.752;2023-03-01T11:21:55;11.38;;;5.85;;
1545;SDS011;766;51.502;9.752;2023-03-01T11:24:33;14.02;;;6.28;;
1545;SDS011;766;51.502;9.752;2023-03-01T11:27:16;12.05;;;6.20;;
1545;SDS011;766;51.502;9.752;2023-03-01T11:29:48;13.35;;;6.90;;
1545;SDS011;766;51.502;9.752;2023-03-01T11:32:22;10.27;;;5.90;;
1545;SDS011;766;51.502;9.752;2023-03-01T11:34:59;11.10;;;6.00;;
1545;SDS011;766;51.502;9.752;2023-03-01T11:37:33;11.00;;;5.85;;
1545;SDS011;766;51.502;9.752;2023-03-01T11:40:16;11.82;;;6.40;;
1545;SDS011;766;51.502;9.752;2023-03-01T11:42:55;13.35;;;6.00;;
1545;SDS011;766;51.502;9.752;2023-03-01T11:45:31;11.82;;;6.38;;
1545;SDS011;766;51.502;9.752;2023-03-01T11:48:25;13.32;;;7.40;;
1545;SDS011;766;51.502;9.752;2023-03-01T11:51:20;9.82;;;6.60;;
1545;SDS011;766;51.502;9.752;2023-03-01T11:53:57;9.45;;;5.93;;
1545;SDS011;766;51.502;9.752;2023-03-01T11:56:35;11.75;;;6.05;;
1545;SDS011;766;51.502;9.752;2023-03-01T11:59:10;11.15;;;5.95;;
1545;SDS011;766;51.502;9.752;2023-03-01T12:02:02;11.55;;;6.65;;
1545;SDS011;766;51.502;9.752;2023-03-01T12:04:57;10.30;;;6.00;;
1545;SDS011;766;51.502;9.752;2023-03-01T12:07:52;11.82;;;6.22;;
1545;SDS011;766;51.502;9.752;2023-03-01T12:10:26;16.13;;;6.10;;
1545;SDS011;766;51.502;9.752;2023-03-01T12:15:58;9.23;;;5.50;;
1545;SDS011;766;51.502;9.752;2023-03-01T12:19:02;9.80;;;5.50;;
1545;SDS011;766;51.502;9.752;2023-03-01T12:21:52;10.93;;;5.90;;
1545;SDS011;766;51.502;9.752;2023-03-01T12:24:47;10.45;;;5.25;;
1545;SDS011;766;51.502;9.752;2023-03-01T12:27:56;9.15;;;5.18;;
1545;SDS011;766;51.502;9.752;2023-03-01T12:30:37;10.70;;;4.82;;
1545;SDS011;766;51.502;9.752;2023-03-01T12:33:22;10.38;;;4.45;;
1545;SDS011;766;51.502;9.752;2023-03-01T12:36:07;10.65;;;4.38;;
1545;SDS011;766;51.502;9.752;2023-03-01T12:39:00;8.75;;;4.25;;
1545;SDS011;766;51.502;9.752;2023-03-01T12:41:43;10.45;;;4.95;;
1545;SDS011;766;51.502;9.752;2023-03-01T12:44:21;9.38;;;4.72;;
1545;SDS011;766;51.502;9.752;2023-03-01T12:47:02;10.82;;;4.60;;
1545;SDS011;766;51.502;9.752;2023-03-01T12:49:38;8.75;;;4.90;;
1545;SDS011;766;51.502;9.752;2023-03-01T12:52:13;7.50;;;4.47;;
1545;SDS011;766;51.502;9.752;2023-03-01T12:54:43;11.68;;;5.75;;
1545;SDS011;766;51.502;9.752;2023-03-01T12:57:18;11.55;;;5.25;;
1545;SDS011;766;51.502;9.752;2023-03-01T12:59:58;9.73;;;5.82;;
1545;SDS011;766;51.502;9.752;2023-03-01T13:02:37;10.10;;;5.07;;
1545;SDS011;766;51.502;9.752;2023-03-01T13:05:21;11.23;;;5.13;;
1545;SDS011;766;51.502;9.752;2023-03-01T13:07:58;10.25;;;6.18;;
1545;SDS011;766;51.502;9.752;2023-03-01T13:10:33;10.27;;;5.63;;
1545;SDS011;766;51.502;9.752;2023-03-01T13:13:18;8.60;;;5.07;;
1545;SDS011;766;51.502;9.752;2023-03-01T13:15:47;10.43;;;5.82;;
1545;SDS011;766;51.502;9.752;2023-03-01T13:18:28;8.88;;;5.45;;
1545;SDS011;766;51.502;9.752;2023-03-01T13:20:59;8.45;;;5.68;;
1545;SDS011;766;51.502;9.752;2023-03-01T13:23:31;10.23;;;5.43;;
1545;SDS011;766;51.502;9.752;2023-03-01T13:26:10;9.80;;;5.50;;
1545;SDS011;766;51.502;9.752;2023-03-01T13:34:41;7.95;;;4.75;;
1545;SDS011;766;51.502;9.752;2023-03-01T13:37:32;8.45;;;5.10;;
1545;SDS011;766;51.502;9.752;2023-03-01T13:43:29;7.30;;;5.15;;
1545;SDS011;766;51.502;9.752;2023-03-01T13:45:59;7.72;;;4.55;;
1545;SDS011;766;51.502;9.752;2023-03-01T13:48:37;12.05;;;5.30;;
1545;SDS011;766;51.502;9.752;2023-03-01T13:51:07;8.70;;;5.10;;
1545;SDS011;766;51.502;9.752;2023-03-01T13:53:39;9.57;;;5.03;;
1545;SDS011;766;51.502;9.752;2023-03-01T13:56:12;9.05;;;5.55;;
1545;SDS011;766;51.502;9.752;2023-03-01T13:58:44;6.18;;;4.65;;
1545;SDS011;766;51.502;9.752;2023-03-01T14:01:27;8.45;;;5.57;;
1545;SDS011;766;51.502;9.752;2023-03-01T14:03:58;8.98;;;5.65;;
1545;SDS011;766;51.502;9.752;2023-03-01T14:06:28;10.07;;;5.40;;
1545;SDS011;766;51.502;9.752;2023-03-01T14:09:03;11.63;;;6.13;;
1545;SDS011;766;51.502;9.752;2023-03-01T14:11:45;8.68;;;4.63;;
1545;SDS011;766;51.502;9.752;2023-03-01T14:14:45;9.55;;;5.18;;
1545;SDS011;766;51.502;9.752;2023-03-01T14:17:27;11.23;;;5.38;;
1545;SDS011;766;51.502;9.752;2023-03-01T14:20:12;8.23;;;4.55;;
1545;SDS011;766;51.502;9.752;2023-03-01T14:22:45;9.75;;;5.47;;
1545;SDS011;766;51.502;9.752;2023-03-01T14:25:17;7.10;;;4.95;;
1545;SDS011;766;51.502;9.752;2023-03-01T14:27:55;10.50;;;6.07;;
1545;SDS011;766;51.502;9.752;2023-03-01T14:30:32;8.05;;;5.18;;
1545;SDS011;766;51.502;9.752;2023-03-01T14:33:06;8.13;;;4.60;;
1545;SDS011;766;51.502;9.752;2023-03-01T14:35:52;9.60;;;5.38;;
1545;SDS011;766;51.502;9.752;2023-03-01T14:38:27;9.80;;;5.50;;
1545;SDS011;766;51.502;9.752;2023-03-01T14:41:02;10.70;;;6.20;;
1545;SDS011;766;51.502;9.752;2023-03-01T14:43:33;11.05;;;6.05;;
1545;SDS011;766;51.502;9.752;2023-03-01T14:46:03;10.45;;;5.90;;
1545;SDS011;766;51.502;9.752;2023-03-01T14:48:33;16.70;;;6.20;;
1545;SDS011;766;51.502;9.752;2023-03-01T14:51:01;10.95;;;5.32;;
1545;SDS011;766;51.502;9.752;2023-03-01T14:53:33;10.60;;;5.68;;
1545;SDS011;766;51.502;9.752;2023-03-01T14:56:16;7.60;;;5.07;;
1545;SDS011;766;51.502;9.752;2023-03-01T14:58:45;7.70;;;4.88;;
1545;SDS011;766;51.502;9.752;2023-03-01T15:01:15;9.77;;;5.28;;
1545;SDS011;766;51.502;9.752;2023-03-01T15:03:47;11.88;;;5.90;;
1545;SDS011;766;51.502;9.752;2023-03-01T15:06:18;9.23;;;5.63;;
1545;SDS011;766;51.502;9.752;2023-03-01T15:08:49;9.90;;;5.70;;
1545;SDS011;766;51.502;9.752;2023-03-01T15:11:20;11.75;;;5.90;;
1545;SDS011;766;51.502;9.752;2023-03-01T15:13:53;15.05;;;5.88;;
1545;SDS011;766;51.502;9.752;2023-03-01T15:16:22;9.50;;;5.47;;
1545;SDS011;766;51.502;9.752;2023-03-01T15:18:53;9.13;;;5.90;;
1545;SDS011;766;51.502;9.752;2023-03-01T15:21:25;9.43;;;6.07;;
1545;SDS011;766;51.502;9.752;2023-03-01T15:23:57;12.20;;;5.95;;
1545;SDS011;766;51.502;9.752;2023-03-01T15:26:29;9.88;;;5.95;;
1545;SDS011;766;51.502;9.752;2023-03-01T15:28:59;8.73;;;5.65;;
1545;SDS011;766;51.502;9.752;2023-03-01T15:31:28;9.23;;;5.50;;
1545;SDS011;766;51.502;9.752;2023-03-01T15:34:19;8.90;;;5.60;;
1545;SDS011;766;51.502;9.752;2023-03-01T15:36:52;11.02;;;5.38;;
1545;SDS011;766;51.502;9.752;2023-03-01T15:39:35;10.20;;;5.35;;
1545;SDS011;766;51.502;9.752;2023-03-01T15:42:10;11.40;;;6.13;;
1545;SDS011;766;51.502;9.752;2023-03-01T15:44:40;9.63;;;5.68;;
1545;SDS011;766;51.502;9.752;2023-03-01T15:47:25;10.73;;;5.72;;
1545;SDS011;766;51.502;9.752;2023-03-01T15:49:58;10.27;;;5.70;;
1545;SDS011;766;51.502;9.752;2023-03-01T15:52:28;13.63;;;6.03;;
1545;SDS011;766;51.502;9.752;2023-03-01T15:55:03;7.53;;;4.57;;
1545;SDS011;766;51.502;9.752;2023-03-01T15:57:33;8.45;;;5.20;;
1545;SDS011;766;51.502;9.752;2023-03-01T16:00:02;7.55;;;4.90;;
1545;SDS011;766;51.502;9.752;2023-03-01T16:02:37;14.20;;;5.28;;
1545;SDS011;766;51.502;9.752;2023-03-01T16:05:10;9.85;;;4.50;;
1545;SDS011;766;51.502;9.752;2023-03-01T16:07:46;8.95;;;5.30;;
1545;SDS011;766;51.502;9.752;2023-03-01T16:10:15;7.82;;;4.45;;
1545;SDS011;766;51.502;9.752;2023-03-01T16:12:46;9.30;;;4.68;;
1545;SDS011;766;51.502;9.752;2023-03-01T16:15:18;7.10;;;4.90;;